Time;durP1;ratioP1;P1;durP2;ratioP2;P2;SDS_P1;SDS_P2;PMS_P1;PMS_P2;Temp;Humidity;BMP_temperature;BMP_pressure;BME280_temperature;BME280_humidity;BME280_pressure;Samples;Min_cycle;Max_cycle;Signal;HPM_P1;HPM_P2
2021/06/07 00:04:50;;;;;;;4.23;3.10;;;;;;;;;;21005323;28;20113;-52
2021/06/07 00:14:52;;;;;;;6.90;2.87;;;;;;;;;;21004580;28;20052;-52
2021/06/07 00:24:53;;;;;;;3.90;2.13;;;;;;;;;;21004551;28;20052;-51
2021/06/07 00:34:55;;;;;;;3.53;1.60;;;;;;;;;;21003404;28;20060;-52
2021/06/07 00:44:56;;;;;;;4.87;2.20;;;;;;;;;;21002936;28;20053;-51
2021/06/07 00:54:58;;;;;;;3.00;1.73;;;;;;;;;;21001190;28;20056;-51
2021/06/07 01:05:00;;;;;;;3.50;1.40;;;;;;;;;;21001144;28;20056;-51
2021/06/07 01:15:02;;;;;;;2.70;1.40;;;;;;;;;;21000353;28;20504;-52
2021/06/07 01:25:05;;;;;;;2.23;1.37;;;;;;;;;;20980612;28;20040;-51
2021/06/07 01:35:08;;;;;;;2.97;1.45;;;;;;;;;;20998435;28;20059;-51
2021/06/07 01:45:11;;;;;;;2.40;1.23;;;;;;;;;;20997365;28;20048;-50
2021/06/07 01:55:19;;;;;;;3.60;1.83;;;;;;;;;;20996799;28;20505;-50
2021/06/07 02:05:23;;;;;;;2.63;1.52;;;;;;;;;;20996714;28;20049;-50
2021/06/07 02:15:25;;;;;;;5.60;1.70;;;;;;;;;;20994792;28;20052;-52
2021/06/07 02:25:27;;;;;;;2.30;1.90;;;;;;;;;;20994985;28;20061;-50
2021/06/07 02:35:28;;;;;;;2.42;1.80;;;;;;;;;;20994841;28;20059;-51
2021/06/07 02:45:30;;;;;;;2.17;1.60;;;;;;;;;;20993650;28;20502;-51
2021/06/07 02:55:36;;;;;;;4.72;1.60;;;;;;;;;;20993122;28;20067;-50
2021/06/07 03:05:38;;;;;;;3.67;1.90;;;;;;;;;;20992533;28;20053;-51
2021/06/07 03:15:40;;;;;;;2.53;1.70;;;;;;;;;;20999723;28;20481;-50
2021/06/07 03:25:43;;;;;;;2.28;1.45;;;;;;;;;;21007721;28;20064;-51
2021/06/07 03:35:44;;;;;;;;;;;;;;;;;;21007296;28;20052;-51
2021/06/07 03:45:46;;;;;;;2.50;1.73;;;;;;;;;;21007331;28;20306;-51
2021/06/07 03:55:48;;;;;;;2.15;1.63;;;;;;;;;;21005755;28;20488;-51
2021/06/07 04:05:49;;;;;;;3.85;1.90;;;;;;;;;;21004426;28;20055;-50
2021/06/07 04:15:51;;;;;;;6.53;2.00;;;;;;;;;;21004112;28;20056;-51
2021/06/07 04:25:53;;;;;;;2.78;1.90;;;;;;;;;;21004303;28;20041;-49
2021/06/07 04:35:55;;;;;;;5.07;2.50;;;;;;;;;;21002576;28;20095;-50
2021/06/07 04:45:56;;;;;;;3.60;2.10;;;;;;;;;;21002138;28;20048;-51
2021/06/07 04:55:58;;;;;;;3.80;2.20;;;;;;;;;;21000944;28;20052;-51
2021/06/07 05:06:00;;;;;;;2.92;2.15;;;;;;;;;;21000035;28;20071;-53
2021/06/07 05:16:03;;;;;;;3.07;1.80;;;;;;;;;;20964527;28;20048;-51
2021/06/07 05:26:05;;;;;;;4.23;1.93;;;;;;;;;;20998618;28;20044;-51
2021/06/07 05:36:06;;;;;;;5.18;1.98;;;;;;;;;;20978938;28;20082;-53
2021/06/07 05:46:08;;;;;;;5.68;1.80;;;;;;;;;;20979380;28;20090;-53
2021/06/07 05:56:10;;;;;;;3.33;2.00;;;;;;;;;;20913683;28;20052;-58
2021/06/07 06:06:11;;;;;;;7.10;2.58;;;;;;;;;;20912618;28;20053;-51
2021/06/07 06:16:13;;;;;;;5.03;2.67;;;;;;;;;;20912722;28;20056;-55
2021/06/07 06:26:15;;;;;;;6.50;3.22;;;;;;;;;;20893491;28;20045;-51
2021/06/07 06:36:16;;;;;;;46.28;7.32;;;;;;;;;;20910746;28;20053;-52
2021/06/07 06:46:18;;;;;;;9.82;3.88;;;;;;;;;;20894710;28;20496;-51
2021/06/07 06:56:20;;;;;;;6.35;3.20;;;;;;;;;;20928123;28;20390;-51
2021/06/07 07:06:25;;;;;;;7.47;2.40;;;;;;;;;;20926728;28;20045;-52
2021/06/07 07:16:26;;;;;;;5.05;2.35;;;;;;;;;;20926291;28;20049;-59
2021/06/07 07:26:31;;;;;;;7.10;3.70;;;;;;;;;;20926113;28;20409;-55
2021/06/07 07:36:33;;;;;;;14.20;4.53;;;;;;;;;;20924771;28;20057;-55
2021/06/07 07:46:35;;;;;;;9.77;6.57;;;;;;;;;;20925876;28;20079;-53
2021/06/07 07:56:37;;;;;;;5.70;2.43;;;;;;;;;;20923474;28;20060;-51
2021/06/07 08:06:40;;;;;;;5.13;2.50;;;;;;;;;;20922081;28;20049;-52
2021/06/07 08:16:42;;;;;;;10.88;4.95;;;;;;;;;;21005587;28;20412;-57
2021/06/07 08:26:43;;;;;;;6.22;4.15;;;;;;;;;;21003817;28;20049;-58
2021/06/07 08:36:45;;;;;;;7.97;3.33;;;;;;;;;;21003413;28;20059;-57
2021/06/07 08:46:46;;;;;;;5.10;3.00;;;;;;;;;;21002481;28;20053;-53
2021/06/07 08:56:48;;;;;;;6.13;2.38;;;;;;;;;;21001065;28;20045;-52
2021/06/07 09:06:50;;;;;;;5.07;2.20;;;;;;;;;;21000773;28;20052;-51
2021/06/07 09:16:52;;;;;;;5.07;2.67;;;;;;;;;;20999372;28;20056;-52
2021/06/07 09:27:06;;;;;;;5.45;2.38;;;;;;;;;;20981442;28;20052;-52
2021/06/07 09:37:09;;;;;;;4.80;2.30;;;;;;;;;;20998063;28;20103;-52
2021/06/07 09:47:11;;;;;;;9.45;2.80;;;;;;;;;;20997162;28;20056;-55
2021/06/07 09:57:13;;;;;;;5.47;2.63;;;;;;;;;;20981515;28;20477;-52
2021/06/07 10:07:16;;;;;;;6.78;2.40;;;;;;;;;;20994255;28;20048;-56
2021/06/07 10:17:17;;;;;;;7.47;3.08;;;;;;;;;;20996030;28;20049;-53
2021/06/07 10:27:19;;;;;;;6.95;2.58;;;;;;;;;;20995646;28;20167;-51
2021/06/07 10:37:20;;;;;;;6.40;2.45;;;;;;;;;;20995098;28;20088;-52
2021/06/07 10:47:49;;;;;;;4.38;2.28;;;;;;;;;;20994787;28;20059;-53
2021/06/07 10:57:52;;;;;;;5.88;2.10;;;;;;;;;;20972825;28;20079;-53
2021/06/07 11:08:02;;;;;;;5.22;2.15;;;;;;;;;;20975536;28;20052;-53
2021/06/07 11:18:27;;;;;;;3.15;2.13;;;;;;;;;;20974819;28;20045;-53
2021/06/07 11:28:41;;;;;;;5.35;2.28;;;;;;;;;;20966913;28;20048;-55
2021/06/07 11:38:45;;;;;;;5.88;2.13;;;;;;;;;;21001764;28;20061;-56
2021/06/07 11:49:04;;;;;;;7.15;4.15;;;;;;;;;;21007092;28;20492;-56
2021/06/07 11:59:07;;;;;;;4.10;2.03;;;;;;;;;;21005745;28;20052;-53
2021/06/07 12:09:09;;;;;;;3.83;2.17;;;;;;;;;;21005697;28;20052;-51
2021/06/07 12:19:11;;;;;;;13.80;6.20;;;;;;;;;;21005446;28;20049;-57
2021/06/07 12:29:23;;;;;;;4.15;2.05;;;;;;;;;;21003680;28;20048;-58
2021/06/07 12:39:25;;;;;;;3.00;2.15;;;;;;;;;;21002503;28;20090;-54
2021/06/07 12:49:28;;;;;;;3.75;1.95;;;;;;;;;;21002487;28;20056;-56
2021/06/07 12:59:30;;;;;;;3.50;1.83;;;;;;;;;;21001515;28;20509;-55
2021/06/07 13:09:36;;;;;;;6.80;1.80;;;;;;;;;;21000795;28;20056;-55
2021/06/07 13:19:43;;;;;;;6.55;2.63;;;;;;;;;;21000197;28;20055;-56
2021/06/07 13:29:52;;;;;;;5.38;2.10;;;;;;;;;;20981233;28;20070;-57
2021/06/07 13:40:01;;;;;;;4.43;2.10;;;;;;;;;;20998056;28;20063;-53
2021/06/07 13:50:17;;;;;;;3.30;1.90;;;;;;;;;;20997624;28;20055;-54
2021/06/07 14:00:18;;;;;;;3.10;2.25;;;;;;;;;;20996445;28;20048;-54
2021/06/07 14:10:20;;;;;;;3.03;2.10;;;;;;;;;;20978346;28;20053;-53
2021/06/07 14:20:22;;;;;;;4.35;1.95;;;;;;;;;;20997223;28;20052;-53
2021/06/07 14:30:24;;;;;;;4.10;2.53;;;;;;;;;;20995945;28;20053;-53
2021/06/07 14:40:26;;;;;;;3.53;2.85;;;;;;;;;;20995484;28;20068;-54
2021/06/07 14:50:27;;;;;;;3.03;2.28;;;;;;;;;;20995075;28;20098;-58
2021/06/07 15:00:29;;;;;;;3.22;1.50;;;;;;;;;;20994609;28;20485;-57
2021/06/07 15:10:31;;;;;;;3.97;1.85;;;;;;;;;;21000707;28;20048;-54
2021/06/07 15:20:33;;;;;;;2.90;1.63;;;;;;;;;;21009393;28;20052;-53
2021/06/07 15:30:34;;;;;;;5.07;1.85;;;;;;;;;;21008101;28;20048;-54
2021/06/07 15:40:36;;;;;;;2.63;1.45;;;;;;;;;;21007415;28;20044;-53
2021/06/07 15:50:38;;;;;;;2.90;1.52;;;;;;;;;;21006874;28;20484;-53
2021/06/07 16:00:41;;;;;;;3.33;1.40;;;;;;;;;;21003024;28;20056;-53
2021/06/07 16:10:43;;;;;;;2.95;1.52;;;;;;;;;;21002091;28;20053;-55
2021/06/07 16:30:46;;;;;;;3.03;1.60;;;;;;;;;;21001431;28;20056;-55
2021/06/07 16:40:48;;;;;;;2.80;1.58;;;;;;;;;;21001764;28;20075;-53
2021/06/07 16:50:50;;;;;;;2.47;1.77;;;;;;;;;;21001473;28;20091;-53
2021/06/07 17:00:51;;;;;;;2.03;1.48;;;;;;;;;;20966432;28;20059;-53
2021/06/07 17:10:53;;;;;;;2.30;1.60;;;;;;;;;;20999672;28;20051;-58
2021/06/07 17:20:58;;;;;;;3.75;2.00;;;;;;;;;;20999466;28;20041;-52
2021/06/07 17:31:00;;;;;;;2.92;2.17;;;;;;;;;;20996994;28;20065;-54
2021/06/07 17:41:02;;;;;;;5.20;2.25;;;;;;;;;;20997585;28;20055;-54
2021/06/07 17:51:03;;;;;;;4.03;2.20;;;;;;;;;;20978178;28;20074;-54
2021/06/07 18:01:05;;;;;;;3.15;2.45;;;;;;;;;;20996369;28;20095;-53
2021/06/07 18:11:07;;;;;;;3.15;2.10;;;;;;;;;;20996860;28;20053;-58
2021/06/07 18:21:09;;;;;;;3.72;2.17;;;;;;;;;;20977188;28;20044;-53
2021/06/07 18:31:11;;;;;;;5.60;2.40;;;;;;;;;;20995250;28;20060;-53
2021/06/07 18:41:12;;;;;;;2.58;1.85;;;;;;;;;;20995252;28;20072;-55
2021/06/07 18:51:14;;;;;;;4.43;2.80;;;;;;;;;;20994569;28;20492;-56
2021/06/07 19:01:16;;;;;;;3.30;2.28;;;;;;;;;;20992987;28;20055;-57
2021/06/07 19:11:17;;;;;;;5.10;2.38;;;;;;;;;;20993142;28;20059;-53
2021/06/07 19:21:19;;;;;;;5.45;2.67;;;;;;;;;;20993641;28;20416;-54
2021/06/07 19:31:21;;;;;;;39.20;35.35;;;;;;;;;;20992390;28;20140;-56
2021/06/07 19:41:24;;;;;;;10.02;4.70;;;;;;;;;;20992351;28;20044;-54
2021/06/07 19:51:26;;;;;;;6.82;3.30;;;;;;;;;;20991334;28;20052;-57
2021/06/07 20:01:28;;;;;;;5.13;2.90;;;;;;;;;;21001635;28;20449;-53
2021/06/07 20:11:29;;;;;;;5.72;3.00;;;;;;;;;;21004704;28;20084;-54
2021/06/07 20:21:34;;;;;;;7.22;3.38;;;;;;;;;;21004287;28;20041;-57
2021/06/07 20:31:35;;;;;;;4.03;2.65;;;;;;;;;;21003425;28;20409;-53
2021/06/07 20:41:37;;;;;;;13.68;10.00;;;;;;;;;;21002030;28;20048;-52
2021/06/07 20:51:39;;;;;;;4.20;2.70;;;;;;;;;;21001972;28;20052;-53
2021/06/07 21:01:41;;;;;;;4.20;2.72;;;;;;;;;;21000677;28;20099;-54
2021/06/07 21:11:43;;;;;;;4.13;2.70;;;;;;;;;;20999313;28;20057;-53
2021/06/07 21:21:44;;;;;;;5.63;2.20;;;;;;;;;;20999794;28;20410;-53
2021/06/07 21:31:46;;;;;;;6.53;3.25;;;;;;;;;;20998291;28;20056;-53
2021/06/07 21:41:47;;;;;;;6.75;2.60;;;;;;;;;;20998301;28;20059;-53
2021/06/07 21:51:49;;;;;;;5.95;3.20;;;;;;;;;;20997601;28;20151;-53
2021/06/07 22:01:51;;;;;;;3.90;2.72;;;;;;;;;;20996624;28;20048;-52
2021/06/07 22:11:53;;;;;;;6.10;3.30;;;;;;;;;;20995681;28;20093;-53
2021/06/07 22:21:54;;;;;;;5.18;3.22;;;;;;;;;;20995038;28;20056;-57
2021/06/07 22:31:56;;;;;;;4.93;3.40;;;;;;;;;;20994071;28;20056;-52
2021/06/07 22:41:58;;;;;;;5.63;2.92;;;;;;;;;;20994779;28;20044;-53
2021/06/07 22:51:59;;;;;;;4.50;3.08;;;;;;;;;;20976253;28;20476;-52
2021/06/07 23:02:01;;;;;;;7.68;4.10;;;;;;;;;;20993904;28;20052;-52
2021/06/07 23:12:03;;;;;;;5.60;3.05;;;;;;;;;;20992408;28;20135;-51
2021/06/07 23:22:05;;;;;;;5.55;3.13;;;;;;;;;;20992456;28;20052;-52
2021/06/07 23:32:07;;;;;;;5.38;3.40;;;;;;;;;;20997273;28;20090;-52
2021/06/07 23:42:08;;;;;;;6.57;3.22;;;;;;;;;;21007497;28;20048;-57
2021/06/07 23:52:10;;;;;;;;;;;;;;;;;;21007205;28;20485;-52
